Aérodrome :
LOGIN :

S'inscrire | Disclaimer

   EN    FR    IT 

 










Légende :    VFR   VFR Marginal   IFR   IFR Intensif   IFR Très Intensif
Visi : 
Plafond : 
>= 8 km
>= 3000ft
5 à 8 km
1000 à 3000 ft
1500m à 5 km
500 à 1000 ft
800 à 1500m
200 à 500 ft
< 800m
< 200 ft
Symboles :   Orages  Brouillard  Fortes neiges  Fortes précipitations  Vent > 20 kt
SIGMETs :   Divers  Orages  Givrage  Turbulence  Onde Orograph.  Cendres Volcan.






- Altitude de l'aérodrome : 622 ft
- Code IATA : BRS


EGGD - Bristol Int.

DERNIER METAR :
  • 301020Z AUTO 27010KT 9999 NCD 06/03 Q1027

METARs EXPIRÉS :
  • 300950Z 26007KT 200V290 9999 FEW030 05/03 Q1027
  • 300920Z 27008KT 9999 SCT032 05/02 Q1026
  • 300850Z 27003KT 220V350 9999 SCT032 05/02 Q1026
  • 300820Z 24004KT 180V260 9999 SCT032 04/01 Q1026
  • 300750Z AUTO 26005KT 9999 OVC031 04/02 Q1026
  • 300720Z AUTO 27004KT 9999 OVC031 05/02 Q1025

TAF TAF EGGD
Valide du 30 à 06h jusqu'au 31 à 06h UTC


300458Z 3006/3106 31013KT 9999 SCT030
BECMG 3021/3024 25012KT
TEMPO 3102/3106 BKN007
PROB30
TEMPO 3103/3106 25015G25KT 6000 -RADZ BKN004
ATIS : +44 1275 473 666



MET'MAP, la Météo Aéronautique d'un coup d'oeil ! - Copyright ORBIFLY Décembre 2007 - Disclaimer

ORBIFLY MET'MAP TEAM :

Programmation & Développement : Alexandra Zaïnal
Sur une idée originale de : Baudouin d'Aumeries
Soutien technique & logistique : Manuel Goepfert
Assistance : Marc-Olivier Méhu




SOURCES & CREDITS :

   NOAA